Terminal Aerodrome Forecast
Issued by NWS

Home | Current Version | Previous Version | Graphics & Text | Print | Product List | Glossary On
Versions: 1 2 3 4 5 6 7 8 9 10 11 12 13 14 15 16 17
000
FTUS43 KGRB 242200 AAA
TAFCWA
TAF AMD
KCWA 242200Z 2422/2518 04007KT P6SM BKN008 OVC015
      TEMPO 2422/2502 6SM -RA SCT008 OVC015
     FM250200 05008KT 6SM -RA OVC008
     FM250600 06008KT P6SM OVC008
     FM251600 07012G22KT P6SM OVC008
     FM251700 07012G22KT P6SM OVC010=

USA.gov is the U.S. government's official web portal to all federal, state and local government web resources and services.